Time;durP1;ratioP1;P1;durP2;ratioP2;P2;SDS_P1;SDS_P2;PMS_P1;PMS_P2;Temp;Humidity;BMP_temperature;BMP_pressure;BME280_temperature;BME280_humidity;BME280_pressure;Samples;Min_cycle;Max_cycle;Signal;HPM_P1;HPM_P2
2023/03/20 04:01:03;;;;;;;0.68;0.68;;;16.60;51.30;;;;;;5682660;22;45896;-60
2023/03/20 04:03:35;;;;;;;0.98;0.50;;;16.60;51.30;;;;;;4925127;28;47208;-57
2023/03/20 04:06:01;;;;;;;0.70;0.60;;;16.60;51.40;;;;;;4954714;28;45523;-58
2023/03/20 04:08:26;;;;;;;0.77;0.50;;;16.60;51.30;;;;;;4955016;28;45646;-58
2023/03/20 04:10:52;;;;;;;0.85;0.75;;;16.60;51.40;;;;;;4957847;28;46049;-60
2023/03/20 04:13:17;;;;;;;0.73;0.70;;;16.60;51.30;;;;;;4964057;28;45399;-60
2023/03/20 04:15:43;;;;;;;0.80;0.60;;;16.60;51.40;;;;;;4957312;28;45197;-59
2023/03/20 04:18:13;;;;;;;0.85;0.57;;;16.60;51.40;;;;;;4944888;28;45363;-55
2023/03/20 04:20:39;;;;;;;0.50;0.50;;;16.60;51.40;;;;;;4941679;28;45726;-59
2023/03/20 04:23:05;;;;;;;0.55;0.55;;;16.60;51.30;;;;;;4946089;28;45067;-58
2023/03/20 04:25:30;;;;;;;0.55;0.50;;;16.60;51.30;;;;;;4941745;28;45239;-60
2023/03/20 04:27:56;;;;;;;0.50;0.50;;;16.60;51.30;;;;;;4962309;28;45083;-60
2023/03/20 04:30:21;;;;;;;0.45;0.45;;;16.60;51.30;;;;;;4955394;28;45086;-59
2023/03/20 04:32:47;;;;;;;0.90;0.68;;;16.60;51.30;;;;;;4958595;28;45588;-60
2023/03/20 04:35:13;;;;;;;0.55;0.52;;;16.60;51.30;;;;;;4960357;28;45430;-68
2023/03/20 04:37:38;;;;;;;0.75;0.68;;;16.60;51.30;;;;;;4914119;28;45365;-59
2023/03/20 04:40:04;;;;;;;1.88;0.63;;;16.60;51.30;;;;;;4966866;28;45119;-65
2023/03/20 04:42:32;;;;;;;0.60;0.55;;;16.60;51.90;;;;;;4950386;28;46228;-59
2023/03/20 04:44:58;;;;;;;0.50;0.47;;;16.60;51.40;;;;;;4962882;28;45089;-59
2023/03/20 04:47:23;;;;;;;0.70;0.57;;;16.60;51.30;;;;;;4925526;28;45027;-59
2023/03/20 04:49:50;;;;;;;0.77;0.60;;;16.60;51.40;;;;;;4954865;28;45312;-59
2023/03/20 04:52:16;;;;;;;1.40;0.73;;;16.60;51.30;;;;;;4956820;28;45306;-59
2023/03/20 04:54:41;;;;;;;0.75;0.60;;;16.60;51.30;;;;;;4963608;28;44917;-60
2023/03/20 04:57:07;;;;;;;1.15;0.55;;;16.60;51.30;;;;;;4942948;28;45632;-60
2023/03/20 04:59:32;;;;;;;1.15;0.60;;;16.60;51.30;;;;;;4934822;28;45617;-59
2023/03/20 05:01:58;;;;;;;1.00;0.90;;;16.60;51.30;;;;;;4934533;28;45370;-59
2023/03/20 05:04:23;;;;;;;0.70;0.60;;;16.60;51.40;;;;;;4963886;28;44808;-60
2023/03/20 05:06:49;;;;;;;0.50;0.50;;;16.60;51.40;;;;;;4961876;28;45211;-58
2023/03/20 05:09:15;;;;;;;0.57;0.57;;;16.60;51.40;;;;;;4948234;28;45237;-56
2023/03/20 05:11:41;;;;;;;0.75;0.63;;;16.60;51.40;;;;;;4939342;28;45242;-61
2023/03/20 05:14:07;;;;;;;0.82;0.60;;;16.60;51.40;;;;;;4949486;28;45163;-57
2023/03/20 05:16:32;;;;;;;1.08;0.50;;;16.50;51.30;;;;;;4956209;28;45412;-58
2023/03/20 05:18:58;;;;;;;0.90;0.60;;;16.60;51.40;;;;;;4942499;28;45095;-60
2023/03/20 05:21:23;;;;;;;0.57;0.57;;;16.50;51.40;;;;;;4941344;28;46053;-59
2023/03/20 05:23:49;;;;;;;0.90;0.65;;;16.60;51.40;;;;;;4962968;28;45456;-55
2023/03/20 05:26:14;;;;;;;0.77;0.70;;;16.60;51.40;;;;;;4957944;28;44900;-59
2023/03/20 05:28:40;;;;;;;0.85;0.75;;;16.60;52.00;;;;;;4965277;28;45494;-59
2023/03/20 05:31:06;;;;;;;0.75;0.65;;;16.60;51.40;;;;;;4948587;28;45577;-60
2023/03/20 05:33:31;;;;;;;0.85;0.52;;;16.60;51.40;;;;;;4950684;28;45520;-56
2023/03/20 05:35:57;;;;;;;0.50;0.45;;;16.60;51.40;;;;;;4937123;28;45697;-59
2023/03/20 05:38:22;;;;;;;0.65;0.50;;;16.60;51.40;;;;;;4965323;28;45635;-59
2023/03/20 05:40:48;;;;;;;0.90;0.60;;;16.60;52.00;;;;;;4957269;28;45475;-60
2023/03/20 05:43:14;;;;;;;0.60;0.57;;;16.60;51.40;;;;;;4942202;28;45486;-58
2023/03/20 05:45:41;;;;;;;1.08;0.80;;;16.60;51.30;;;;;;4941922;28;45434;-59
2023/03/20 05:48:06;;;;;;;0.60;0.60;;;16.60;51.40;;;;;;4954529;28;45585;-60
2023/03/20 05:50:32;;;;;;;0.88;0.63;;;16.60;51.40;;;;;;4943895;28;45598;-59
2023/03/20 05:52:57;;;;;;;0.65;0.60;;;16.50;51.30;;;;;;4967700;28;45233;-58
2023/03/20 05:55:23;;;;;;;0.70;0.70;;;16.50;51.40;;;;;;4943933;28;45129;-60
2023/03/20 05:57:49;;;;;;;0.80;0.65;;;16.50;51.40;;;;;;4954001;28;44815;-59
2023/03/20 06:00:16;;;;;;;0.80;0.55;;;16.50;51.40;;;;;;4940605;28;46800;-61
2023/03/20 06:02:41;;;;;;;0.77;0.70;;;16.50;51.50;;;;;;4944026;28;46545;-60
2023/03/20 06:05:07;;;;;;;1.27;0.60;;;16.50;51.50;;;;;;4942793;28;45744;-60
2023/03/20 06:07:33;;;;;;;0.88;0.60;;;16.50;51.40;;;;;;4929825;28;45616;-59
2023/03/20 06:09:59;;;;;;;0.65;0.60;;;16.50;51.50;;;;;;4961994;28;46422;-58
2023/03/20 06:12:25;;;;;;;0.70;0.60;;;16.50;51.50;;;;;;4965004;28;45515;-59
2023/03/20 06:14:50;;;;;;;0.43;0.43;;;16.50;51.50;;;;;;4968123;28;44887;-62
2023/03/20 06:17:16;;;;;;;0.85;0.70;;;16.50;51.50;;;;;;4941213;28;45118;-59
2023/03/20 06:19:41;;;;;;;1.27;0.70;;;16.50;51.50;;;;;;4964301;28;45358;-59
2023/03/20 06:22:07;;;;;;;0.70;0.60;;;16.50;51.50;;;;;;4964489;28;45561;-59
2023/03/20 06:24:34;;;;;;;0.70;0.70;;;16.50;51.50;;;;;;4965997;28;45586;-61
2023/03/20 06:26:59;;;;;;;0.60;0.60;;;16.50;51.50;;;;;;4958273;28;45255;-60
2023/03/20 06:29:25;;;;;;;0.70;0.60;;;16.50;51.40;;;;;;4945569;28;47684;-60
2023/03/20 06:31:51;;;;;;;0.60;0.50;;;16.50;51.50;;;;;;4937286;28;44935;-59
2023/03/20 06:34:16;;;;;;;0.65;0.60;;;16.50;51.60;;;;;;4911385;28;45498;-60
2023/03/20 06:36:42;;;;;;;0.65;0.63;;;16.50;51.50;;;;;;4959867;28;45355;-59
2023/03/20 06:39:07;;;;;;;0.88;0.70;;;16.50;51.50;;;;;;4963291;28;45340;-61
2023/03/20 06:41:33;;;;;;;0.60;0.60;;;16.50;51.50;;;;;;4961853;28;45614;-58
2023/03/20 06:43:58;;;;;;;0.70;0.70;;;16.50;51.60;;;;;;4965567;28;44689;-59
2023/03/20 06:46:24;;;;;;;1.40;0.70;;;16.50;51.50;;;;;;4949051;28;45339;-59
2023/03/20 06:48:50;;;;;;;0.77;0.77;;;16.50;51.50;;;;;;4965888;28;45465;-60
2023/03/20 06:51:16;;;;;;;0.70;0.60;;;16.50;51.50;;;;;;4940783;28;45271;-60
2023/03/20 06:53:43;;;;;;;1.17;0.73;;;16.50;51.50;;;;;;4954543;28;46534;-59
2023/03/20 06:56:09;;;;;;;0.60;0.60;;;16.50;51.50;;;;;;4939557;28;45497;-59
2023/03/20 06:58:35;;;;;;;4.22;2.45;;;16.50;51.60;;;;;;4959405;28;45416;-59
2023/03/20 07:01:01;;;;;;;8.57;5.90;;;16.50;52.20;;;;;;4945390;28;45715;-59
2023/03/20 07:03:27;;;;;;;15.50;9.45;;;16.40;52.50;;;;;;4969326;28;45358;-59
2023/03/20 07:05:53;;;;;;;13.43;9.10;;;16.40;52.60;;;;;;4961231;28;45215;-59
2023/03/20 07:08:19;;;;;;;13.57;9.05;;;16.40;52.50;;;;;;4967783;28;46210;-60
2023/03/20 07:10:45;;;;;;;12.70;9.05;;;16.50;52.40;;;;;;4947320;28;45149;-59
2023/03/20 07:13:11;;;;;;;11.05;7.97;;;16.70;52.20;;;;;;4935054;28;45258;-60
2023/03/20 07:15:36;;;;;;;12.65;8.32;;;16.90;51.90;;;;;;4960887;28;45405;-58
2023/03/20 07:18:02;;;;;;;10.20;7.28;;;17.10;51.60;;;;;;4968802;28;46520;-59
2023/03/20 07:20:27;;;;;;;11.18;7.90;;;17.30;51.90;;;;;;4965679;28;45550;-62
2023/03/20 07:22:54;;;;;;;10.25;7.22;;;17.50;50.90;;;;;;4931462;28;44985;-60
2023/03/20 07:25:20;;;;;;;9.90;7.13;;;17.80;50.70;;;;;;4949869;28;45865;-60
2023/03/20 07:27:49;;;;;;;9.50;6.82;;;17.90;50.40;;;;;;4968508;28;45546;-59
2023/03/20 07:30:15;;;;;;;9.82;6.88;;;18.10;50.40;;;;;;4959271;28;45464;-59
2023/03/20 07:32:41;;;;;;;10.27;5.70;;;18.20;50.30;;;;;;4954251;28;45292;-59
2023/03/20 07:35:08;;;;;;;8.82;5.80;;;18.40;50.20;;;;;;4966383;28;45219;-60
2023/03/20 07:37:33;;;;;;;9.38;6.13;;;18.50;50.10;;;;;;4949197;28;46784;-60
2023/03/20 07:39:59;;;;;;;9.98;5.78;;;18.70;50.10;;;;;;4969516;28;45174;-59
2023/03/20 07:42:25;;;;;;;8.75;6.00;;;18.80;50.00;;;;;;4965268;28;45278;-59
2023/03/20 07:44:50;;;;;;;7.47;5.57;;;18.90;49.80;;;;;;4956663;28;45080;-58
2023/03/20 07:47:16;;;;;;;9.00;5.72;;;19.00;49.70;;;;;;4959159;28;45217;-58
2023/03/20 07:49:41;;;;;;;8.07;5.50;;;19.20;49.70;;;;;;4965547;28;45498;-58
2023/03/20 07:52:07;;;;;;;9.32;6.00;;;19.30;49.50;;;;;;4956930;28;45094;-58
2023/03/20 07:54:32;;;;;;;6.32;5.20;;;19.40;49.50;;;;;;4925253;28;45217;-57
2023/03/20 07:56:58;;;;;;;7.22;5.28;;;19.50;49.30;;;;;;4964510;28;46636;-59
2023/03/20 07:59:23;;;;;;;8.35;5.10;;;19.60;49.30;;;;;;4964371;28;45503;-55
2023/03/20 08:01:49;;;;;;;8.38;5.45;;;19.70;49.20;;;;;;4954272;28;45026;-59
2023/03/20 08:04:18;;;;;;;7.65;5.40;;;19.80;49.20;;;;;;4964001;28;45157;-58
2023/03/20 08:06:44;;;;;;;8.27;5.35;;;19.90;49.20;;;;;;4962689;28;45635;-60
2023/03/20 08:09:09;;;;;;;8.75;5.30;;;19.90;49.60;;;;;;4960438;28;45138;-59
2023/03/20 08:11:34;;;;;;;6.53;5.05;;;20.00;48.90;;;;;;4942067;28;45778;-60
2023/03/20 08:14:00;;;;;;;6.82;5.45;;;20.10;48.90;;;;;;4950100;28;45491;-58
2023/03/20 08:16:26;;;;;;;5.93;5.00;;;20.30;48.80;;;;;;4946147;28;46741;-60
2023/03/20 08:18:52;;;;;;;7.43;5.05;;;20.30;48.70;;;;;;4971683;28;45489;-58
2023/03/20 08:21:21;;;;;;;6.32;4.72;;;20.40;48.60;;;;;;4963056;28;45987;-59
2023/03/20 08:23:46;;;;;;;6.95;5.07;;;20.50;48.60;;;;;;4965168;28;44984;-58
2023/03/20 08:26:12;;;;;;;6.53;4.93;;;20.60;48.60;;;;;;4964025;28;46964;-59
2023/03/20 08:28:37;;;;;;;6.90;5.07;;;20.60;48.50;;;;;;4952029;28;44764;-58
2023/03/20 08:31:07;;;;;;;5.85;4.82;;;20.70;48.50;;;;;;4928236;28;45109;-58
2023/03/20 08:33:32;;;;;;;5.80;5.00;;;20.80;48.40;;;;;;4963149;28;45414;-59
2023/03/20 08:35:58;;;;;;;6.07;4.78;;;20.90;48.30;;;;;;4960860;28;45432;-58
2023/03/20 08:38:24;;;;;;;5.85;4.57;;;20.90;48.20;;;;;;4949266;28;45808;-57
2023/03/20 08:40:49;;;;;;;8.13;5.43;;;21.00;48.10;;;;;;4966029;28;44872;-58
2023/03/20 08:43:15;;;;;;;6.50;4.95;;;21.10;48.10;;;;;;4952215;28;45450;-60
2023/03/20 08:45:40;;;;;;;6.43;4.80;;;21.20;48.00;;;;;;4948301;28;45498;-59
2023/03/20 08:48:06;;;;;;;6.50;4.68;;;21.20;47.90;;;;;;4936991;28;45687;-57
2023/03/20 08:50:31;;;;;;;5.65;4.60;;;21.30;47.90;;;;;;4963822;28;45318;-57
2023/03/20 08:52:57;;;;;;;6.50;4.07;;;21.40;47.80;;;;;;4946425;28;44770;-54
2023/03/20 08:55:23;;;;;;;5.85;4.45;;;21.40;47.70;;;;;;4928876;28;45906;-57
2023/03/20 08:57:48;;;;;;;7.57;4.63;;;21.60;47.70;;;;;;4967066;28;45146;-58
2023/03/20 09:00:14;;;;;;;6.65;4.88;;;21.60;47.70;;;;;;4962899;28;45581;-58
2023/03/20 09:02:40;;;;;;;6.63;4.65;;;21.70;47.60;;;;;;4950985;28;45161;-58
2023/03/20 09:05:07;;;;;;;5.57;4.18;;;21.70;47.50;;;;;;4939301;28;45099;-59
2023/03/20 09:07:32;;;;;;;7.72;5.28;;;21.80;47.50;;;;;;4930462;28;45303;-59
2023/03/20 09:09:58;;;;;;;5.85;4.82;;;21.80;47.40;;;;;;4966047;28;45516;-59
2023/03/20 09:12:23;;;;;;;7.32;4.32;;;21.90;47.40;;;;;;4942981;28;45564;-60
2023/03/20 09:14:49;;;;;;;7.80;3.90;;;22.00;47.30;;;;;;4963022;28;45605;-58
2023/03/20 09:17:15;;;;;;;5.55;3.80;;;22.10;47.30;;;;;;4953218;28;45090;-58
2023/03/20 09:19:43;;;;;;;5.72;4.35;;;22.10;47.30;;;;;;4965643;28;45215;-60
2023/03/20 09:22:11;;;;;;;6.95;4.38;;;22.20;47.20;;;;;;4941111;28;45535;-59
2023/03/20 09:24:36;;;;;;;5.78;4.60;;;22.20;47.10;;;;;;4919019;28;45776;-59
2023/03/20 09:27:02;;;;;;;6.10;4.28;;;22.30;47.00;;;;;;4952437;28;45492;-59
2023/03/20 09:29:28;;;;;;;7.95;5.15;;;22.40;46.90;;;;;;4971433;28;45581;-58
2023/03/20 09:31:53;;;;;;;7.10;4.35;;;22.50;46.80;;;;;;4953472;28;44796;-59
2023/03/20 09:34:19;;;;;;;5.55;4.30;;;22.60;46.80;;;;;;4966675;28;45281;-58
2023/03/20 09:36:45;;;;;;;5.40;4.38;;;22.60;46.70;;;;;;4961375;28;45612;-58
2023/03/20 09:39:10;;;;;;;6.95;4.38;;;22.60;46.70;;;;;;4949378;28;45031;-59
2023/03/20 09:41:36;;;;;;;5.93;4.60;;;22.60;46.60;;;;;;4958713;28;45064;-59
2023/03/20 09:44:37;;;;;;;6.47;4.35;;;22.70;46.60;;;;;;4941742;28;46262;-60
2023/03/20 09:47:29;;;;;;;6.53;4.57;;;22.70;46.30;;;;;;4945627;28;45277;-59
2023/03/20 09:49:58;;;;;;;6.38;4.50;;;22.70;46.40;;;;;;4954299;28;45393;-60
2023/03/20 09:52:29;;;;;;;6.47;4.10;;;22.80;46.60;;;;;;4941443;28;44740;-57
2023/03/20 09:55:01;;;;;;;5.93;4.45;;;22.80;46.60;;;;;;4970023;28;45569;-60
2023/03/20 09:57:40;;;;;;;5.45;4.40;;;22.80;46.40;;;;;;4929399;28;45266;-57
2023/03/20 10:00:17;;;;;;;7.85;4.05;;;22.80;46.30;;;;;;4929921;28;45112;-60
2023/03/20 10:02:42;;;;;;;6.95;4.28;;;22.90;46.60;;;;;;4944771;28;44723;-58
2023/03/20 10:05:24;;;;;;;5.30;3.55;;;22.90;46.50;;;;;;4965111;28;45464;-59
2023/03/20 10:07:50;;;;;;;4.82;4.30;;;22.90;46.40;;;;;;4943214;28;45124;-61
2023/03/20 10:10:19;;;;;;;6.60;4.10;;;23.00;46.50;;;;;;4933840;28;45533;-58
2023/03/20 10:12:47;;;;;;;5.15;3.17;;;23.00;46.50;;;;;;4934859;28;45292;-58
2023/03/20 10:16:00;;;;;;;5.18;3.90;;;23.00;46.40;;;;;;4961246;28;46888;-61
2023/03/20 10:18:26;;;;;;;4.88;3.60;;;23.10;46.10;;;;;;4900623;28;45544;-58
2023/03/20 10:21:05;;;;;;;5.78;4.20;;;23.20;46.40;;;;;;4952665;28;45879;-57
2023/03/20 10:23:36;;;;;;;5.38;4.00;;;23.20;46.30;;;;;;4966577;28;45482;-60
2023/03/20 10:26:16;;;;;;;4.55;3.75;;;23.30;46.20;;;;;;4935844;28;45846;-57
2023/03/20 10:28:52;;;;;;;7.95;4.38;;;23.30;45.90;;;;;;4933880;28;45860;-59
2023/03/20 10:31:31;;;;;;;6.70;3.80;;;23.40;46.10;;;;;;4942818;28;45557;-59
2023/03/20 10:34:08;;;;;;;7.00;3.88;;;23.40;45.90;;;;;;4964813;28;45256;-58
2023/03/20 10:36:55;;;;;;;7.95;3.90;;;23.40;46.00;;;;;;4926341;28;46221;-60
2023/03/20 10:39:58;;;;;;;5.93;4.25;;;23.50;45.80;;;;;;4946386;28;45346;-58
2023/03/20 10:42:29;;;;;;;4.70;3.80;;;23.50;45.80;;;;;;4958495;28;45389;-60
2023/03/20 10:45:08;;;;;;;7.13;3.75;;;23.50;46.00;;;;;;4934580;28;45267;-59
2023/03/20 10:47:35;;;;;;;5.18;3.55;;;23.50;45.80;;;;;;4938825;28;46089;-59
2023/03/20 10:50:04;;;;;;;5.30;3.45;;;23.50;46.00;;;;;;4916994;28;45314;-57
2023/03/20 10:52:32;;;;;;;4.60;3.70;;;23.60;46.10;;;;;;4939097;28;46020;-58
2023/03/20 10:55:00;;;;;;;4.32;3.72;;;23.60;46.10;;;;;;4935190;28;45554;-58
2023/03/20 10:57:28;;;;;;;4.57;3.72;;;23.60;46.10;;;;;;4949254;28;45454;-58
2023/03/20 10:59:55;;;;;;;5.75;3.45;;;23.70;46.00;;;;;;4932248;28;45284;-58
2023/03/20 11:02:22;;;;;;;4.78;3.60;;;23.70;46.00;;;;;;4935440;28;45438;-57
2023/03/20 11:04:47;;;;;;;4.50;3.53;;;23.70;46.00;;;;;;4957170;28;45472;-58
2023/03/20 11:07:31;;;;;;;4.35;3.17;;;23.70;45.90;;;;;;4921894;28;45726;-57
2023/03/20 11:10:03;;;;;;;3.67;3.25;;;23.70;45.90;;;;;;4942646;28;44924;-58
2023/03/20 11:12:35;;;;;;;6.30;3.83;;;23.70;45.70;;;;;;4960515;28;45291;-58
2023/03/20 11:15:03;;;;;;;4.65;3.33;;;23.70;45.90;;;;;;4963318;28;45476;-58
2023/03/20 11:17:29;;;;;;;5.32;3.72;;;23.70;45.80;;;;;;4928796;28;46499;-59
2023/03/20 11:19:54;;;;;;;4.82;3.50;;;23.70;45.80;;;;;;4947790;28;44658;-58
2023/03/20 11:22:26;;;;;;;4.10;3.45;;;23.80;45.80;;;;;;4926286;28;45274;-60
2023/03/20 11:24:57;;;;;;;3.95;3.30;;;23.80;45.70;;;;;;4948482;28;47187;-58
2023/03/20 11:27:33;;;;;;;4.40;3.58;;;23.80;45.80;;;;;;4947513;28;45740;-58
2023/03/20 11:30:00;;;;;;;4.45;3.25;;;23.80;45.60;;;;;;4948349;28;45076;-58
2023/03/20 11:32:29;;;;;;;3.58;3.20;;;23.80;45.80;;;;;;4958690;28;45313;-58
2023/03/20 11:34:56;;;;;;;4.45;3.42;;;23.80;45.70;;;;;;4964284;28;45390;-60
2023/03/20 11:37:24;;;;;;;3.95;3.28;;;23.90;45.80;;;;;;4956438;28;45780;-58
2023/03/20 11:40:14;;;;;;;4.85;3.20;;;23.90;45.70;;;;;;4955201;28;45213;-58
2023/03/20 11:42:39;;;;;;;3.60;2.95;;;23.90;45.50;;;;;;4973878;28;45252;-57
2023/03/20 11:45:15;;;;;;;4.40;3.35;;;23.90;45.70;;;;;;4940082;28;46954;-62
2023/03/20 11:47:41;;;;;;;3.20;2.88;;;23.90;45.50;;;;;;4968367;28;46041;-59
2023/03/20 11:50:28;;;;;;;3.35;2.83;;;23.90;45.60;;;;;;4947511;28;44698;-61
2023/03/20 11:52:53;;;;;;;3.22;2.78;;;23.90;45.50;;;;;;4954353;28;44813;-58
2023/03/20 11:55:29;;;;;;;4.22;3.40;;;24.00;45.70;;;;;;4948288;28;45560;-58
2023/03/20 11:57:56;;;;;;;5.50;2.83;;;23.90;45.50;;;;;;4951029;28;45566;-59
2023/03/20 12:00:23;;;;;;;5.15;3.45;;;24.00;45.60;;;;;;4925739;28;44726;-59
2023/03/20 12:02:49;;;;;;;3.85;3.15;;;24.00;45.60;;;;;;4921918;28;45788;-58
2023/03/20 12:05:35;;;;;;;4.45;3.28;;;24.00;45.70;;;;;;4954474;28;44778;-61
2023/03/20 12:08:14;;;;;;;6.63;3.40;;;24.10;46.00;;;;;;4943866;28;45281;-60
2023/03/20 12:10:45;;;;;;;5.47;3.25;;;24.00;45.60;;;;;;4936783;28;45810;-59
2023/03/20 12:13:16;;;;;;;4.53;3.28;;;24.10;45.60;;;;;;4955815;28;45422;-60
2023/03/20 12:15:47;;;;;;;3.28;2.70;;;24.10;45.50;;;;;;4929712;28;45389;-58
2023/03/20 12:18:46;;;;;;;3.13;2.72;;;24.20;45.60;;;;;;4961266;28;45634;-57
2023/03/20 12:21:26;;;;;;;3.78;2.80;;;24.20;45.40;;;;;;4947263;28;45328;-62
2023/03/20 12:24:30;;;;;;;4.18;2.97;;;24.20;45.50;;;;;;4953990;28;44926;-59
2023/03/20 12:26:57;;;;;;;5.88;3.17;;;24.30;45.50;;;;;;4948634;28;45050;-57
2023/03/20 12:29:27;;;;;;;5.90;2.92;;;24.30;45.70;;;;;;4953892;28;46465;-58
2023/03/20 12:32:05;;;;;;;4.00;2.83;;;24.30;45.60;;;;;;4950756;28;45748;-58
2023/03/20 12:34:55;;;;;;;3.80;2.65;;;24.30;45.50;;;;;;4968525;28;44813;-59
2023/03/20 12:37:21;;;;;;;4.68;3.03;;;24.40;45.60;;;;;;4953579;28;45227;-59
2023/03/20 12:39:51;;;;;;;3.45;2.80;;;24.40;45.60;;;;;;4939871;28;45409;-60
2023/03/20 12:42:38;;;;;;;2.63;2.38;;;24.40;45.50;;;;;;4950390;28;44760;-57
2023/03/20 12:45:20;;;;;;;5.07;2.85;;;24.40;45.40;;;;;;4964002;28;45610;-64
2023/03/20 12:48:24;;;;;;;5.18;2.72;;;24.50;45.50;;;;;;4940694;28;45663;-55
2023/03/20 12:51:04;;;;;;;3.35;2.80;;;24.50;45.40;;;;;;4960196;28;46294;-58
2023/03/20 12:53:51;;;;;;;2.95;2.58;;;24.50;45.50;;;;;;4936261;28;45203;-61
2023/03/20 12:56:43;;;;;;;4.75;2.90;;;24.50;45.40;;;;;;4946104;28;45440;-58
2023/03/20 12:59:32;;;;;;;3.72;3.08;;;24.50;45.30;;;;;;4971105;28;45192;-59
2023/03/20 13:02:12;;;;;;;5.05;2.75;;;24.60;45.30;;;;;;4952317;28;46566;-60
2023/03/20 13:04:49;;;;;;;4.70;2.80;;;24.60;45.60;;;;;;4967520;28;45479;-61
2023/03/20 13:07:19;;;;;;;3.72;2.60;;;24.60;45.40;;;;;;4962068;28;45942;-59
2023/03/20 13:09:48;;;;;;;3.38;2.50;;;24.70;45.40;;;;;;4965981;28;45316;-58
2023/03/20 13:12:45;;;;;;;3.05;2.75;;;24.70;45.50;;;;;;4947861;28;45829;-57
2023/03/20 13:15:11;;;;;;;4.35;2.78;;;24.70;45.30;;;;;;4943207;28;45702;-58
2023/03/20 13:17:51;;;;;;;5.40;2.65;;;24.70;45.50;;;;;;4964516;28;45192;-58
2023/03/20 13:20:30;;;;;;;2.60;2.40;;;24.70;45.40;;;;;;4933174;28;44913;-59
2023/03/20 13:23:15;;;;;;;3.35;2.53;;;24.70;45.40;;;;;;4965163;28;47479;-60
2023/03/20 13:25:52;;;;;;;3.50;2.60;;;24.70;45.50;;;;;;4966916;28;44740;-60
2023/03/20 13:28:42;;;;;;;3.35;2.67;;;24.80;45.60;;;;;;4952568;28;44825;-60
2023/03/20 13:31:25;;;;;;;2.60;2.28;;;24.80;45.50;;;;;;4966038;28;45180;-60
2023/03/20 13:34:09;;;;;;;2.58;2.38;;;24.80;45.50;;;;;;4961862;28;46625;-59
2023/03/20 13:36:52;;;;;;;3.03;2.45;;;24.80;45.40;;;;;;4956796;28;45371;-59
2023/03/20 13:39:27;;;;;;;2.97;2.40;;;24.80;45.50;;;;;;4956564;28;45295;-59
2023/03/20 13:41:53;;;;;;;2.67;2.40;;;24.80;45.50;;;;;;4951694;28;45853;-56
2023/03/20 13:44:19;;;;;;;3.83;2.20;;;24.80;45.50;;;;;;4938374;28;45487;-58
2023/03/20 13:47:00;;;;;;;2.63;1.92;;;24.80;45.50;;;;;;4929788;28;45154;-56
2023/03/20 13:49:44;;;;;;;4.15;2.10;;;24.90;45.40;;;;;;4951950;28;45251;-58
2023/03/20 13:52:12;;;;;;;4.18;2.38;;;24.90;45.40;;;;;;4947160;28;45529;-56
2023/03/20 13:55:15;;;;;;;4.97;2.47;;;24.90;45.50;;;;;;4963101;28;45480;-60
2023/03/20 13:58:02;;;;;;;2.38;2.00;;;25.00;45.40;;;;;;4973590;28;45430;-56
2023/03/20 14:00:40;;;;;;;2.50;2.10;;;24.90;45.40;;;;;;4913542;28;45369;-60
2023/03/20 14:03:17;;;;;;;2.50;2.28;;;24.80;45.70;;;;;;4962250;28;45255;-59
2023/03/20 14:05:43;;;;;;;2.50;2.30;;;24.80;45.80;;;;;;4948436;28;46631;-57
2023/03/20 14:08:26;;;;;;;3.70;2.40;;;24.70;45.90;;;;;;4956099;28;44726;-59
2023/03/20 14:11:10;;;;;;;2.90;2.60;;;24.80;45.90;;;;;;4966783;28;45232;-59
2023/03/20 14:13:36;;;;;;;4.60;2.15;;;24.80;46.00;;;;;;4941249;28;45250;-56
2023/03/20 14:16:03;;;;;;;4.32;2.50;;;24.80;45.90;;;;;;4944761;28;45549;-58
2023/03/20 14:18:29;;;;;;;2.92;2.35;;;24.80;45.90;;;;;;4965269;28;45126;-58
2023/03/20 14:20:56;;;;;;;2.40;2.15;;;24.90;45.90;;;;;;4944529;28;44706;-59
2023/03/20 14:23:43;;;;;;;3.60;2.30;;;24.90;45.90;;;;;;4931219;28;45711;-57
2023/03/20 14:26:33;;;;;;;3.63;1.98;;;24.90;45.80;;;;;;4966853;28;45610;-58
2023/03/20 14:29:01;;;;;;;3.15;2.03;;;24.90;45.70;;;;;;4956022;28;45128;-57
2023/03/20 14:31:31;;;;;;;2.88;2.25;;;24.90;45.80;;;;;;4942384;28;45672;-59
2023/03/20 14:34:12;;;;;;;3.17;2.45;;;25.00;45.80;;;;;;4954806;28;45795;-57
2023/03/20 14:36:43;;;;;;;3.08;1.92;;;25.00;45.70;;;;;;4962048;28;45701;-56
2023/03/20 14:39:11;;;;;;;4.85;1.90;;;25.00;45.70;;;;;;4970541;28;45316;-57
2023/03/20 14:42:15;;;;;;;2.20;1.73;;;25.00;45.70;;;;;;4963815;28;44698;-58
2023/03/20 14:45:17;;;;;;;3.45;1.70;;;24.90;45.70;;;;;;4949157;28;45626;-58
2023/03/20 14:47:57;;;;;;;3.08;2.30;;;24.80;46.00;;;;;;4966364;28;45421;-58
2023/03/20 14:50:45;;;;;;;2.85;2.10;;;24.80;46.20;;;;;;4955303;28;45315;-57
2023/03/20 14:53:17;;;;;;;2.55;2.05;;;24.80;46.20;;;;;;4964229;28;45493;-57
2023/03/20 14:56:06;;;;;;;2.53;1.98;;;24.80;46.20;;;;;;4930565;28;45697;-60
2023/03/20 14:58:38;;;;;;;5.85;2.00;;;24.90;46.10;;;;;;4964265;28;45141;-60
2023/03/20 15:01:08;;;;;;;2.30;1.90;;;24.90;46.10;;;;;;4957935;28;44656;-60
2023/03/20 15:03:34;;;;;;;11.85;2.20;;;24.90;46.10;;;;;;4933432;28;45768;-60
2023/03/20 15:06:03;;;;;;;4.82;1.85;;;25.00;46.00;;;;;;4927237;28;45505;-59
2023/03/20 15:08:30;;;;;;;2.80;2.30;;;25.00;46.60;;;;;;4934096;28;46571;-60
2023/03/20 15:10:57;;;;;;;2.67;2.28;;;25.10;46.10;;;;;;4952064;28;45308;-59
2023/03/20 15:13:23;;;;;;;2.63;1.88;;;25.10;46.10;;;;;;4952806;28;45238;-60
2023/03/20 15:15:53;;;;;;;2.30;2.10;;;25.10;46.00;;;;;;4947623;28;44911;-59
2023/03/20 15:18:20;;;;;;;2.08;1.73;;;25.10;46.00;;;;;;4955367;28;45766;-58
2023/03/20 15:20:46;;;;;;;1.70;1.58;;;25.10;46.00;;;;;;4949532;28;45574;-58
2023/03/20 15:23:12;;;;;;;3.42;2.35;;;25.10;46.00;;;;;;4967281;28;45458;-58
2023/03/20 15:25:42;;;;;;;3.25;1.80;;;25.00;46.10;;;;;;4965964;28;45232;-56
2023/03/20 15:28:18;;;;;;;2.17;1.92;;;24.90;46.20;;;;;;4950881;28;45661;-58
2023/03/20 15:30:44;;;;;;;2.35;2.15;;;24.90;46.30;;;;;;4915866;28;44617;-55
2023/03/20 15:33:16;;;;;;;2.15;1.73;;;24.90;46.30;;;;;;4938120;28;45463;-57
2023/03/20 15:35:41;;;;;;;1.95;1.75;;;25.00;46.30;;;;;;4964138;28;45231;-63
2023/03/20 15:38:07;;;;;;;2.97;2.25;;;25.00;46.30;;;;;;4924366;28;46832;-60
2023/03/20 15:40:33;;;;;;;2.25;1.83;;;25.00;46.20;;;;;;4974176;28;45168;-59
2023/03/20 15:43:02;;;;;;;2.85;2.00;;;25.10;46.30;;;;;;4931946;28;45013;-60
2023/03/20 15:45:31;;;;;;;1.92;1.73;;;25.10;46.20;;;;;;4933775;28;44998;-60
2023/03/20 15:48:03;;;;;;;2.70;1.90;;;25.10;46.20;;;;;;4972896;28;45558;-59
2023/03/20 15:50:37;;;;;;;2.38;2.17;;;25.20;46.20;;;;;;4954146;28;44680;-58
2023/03/20 15:53:09;;;;;;;2.08;1.80;;;25.20;46.20;;;;;;4955032;28;45272;-58
2023/03/20 15:55:35;;;;;;;3.28;1.90;;;25.20;46.20;;;;;;4938220;28;45193;-59
2023/03/20 15:58:01;;;;;;;2.63;1.90;;;25.20;46.20;;;;;;4950114;28;45559;-58
2023/03/20 16:00:31;;;;;;;1.88;1.77;;;25.10;46.10;;;;;;4927880;28;45465;-57
2023/03/20 16:03:01;;;;;;;2.20;2.00;;;25.00;46.20;;;;;;4935854;28;46245;-59
2023/03/20 16:05:27;;;;;;;3.45;1.80;;;25.00;46.40;;;;;;4948105;28;45017;-63
2023/03/20 16:07:53;;;;;;;2.90;1.80;;;24.90;46.50;;;;;;4936496;28;45669;-59
2023/03/20 16:10:21;;;;;;;1.85;1.65;;;24.90;46.60;;;;;;4943569;28;45507;-60
2023/03/20 16:12:48;;;;;;;3.97;2.00;;;25.00;46.60;;;;;;4954646;28;45388;-58
2023/03/20 16:15:15;;;;;;;1.70;1.60;;;25.00;46.50;;;;;;4935669;28;45211;-61
2023/03/20 16:17:41;;;;;;;3.15;1.70;;;25.00;46.40;;;;;;4950181;28;45308;-59
2023/03/20 16:20:12;;;;;;;2.17;1.98;;;25.10;46.40;;;;;;4930866;28;45271;-61
2023/03/20 16:22:38;;;;;;;1.80;1.52;;;25.10;46.40;;;;;;4917949;28;45686;-59
2023/03/20 16:25:04;;;;;;;2.30;1.90;;;25.10;46.30;;;;;;4902910;28;45191;-60
2023/03/20 16:27:32;;;;;;;4.20;1.80;;;25.20;46.40;;;;;;4945338;28;46590;-58
2023/03/20 16:29:58;;;;;;;2.00;1.60;;;25.20;46.30;;;;;;4944195;28;45659;-59
2023/03/20 16:32:37;;;;;;;1.77;1.67;;;25.20;46.30;;;;;;4941081;28;45181;-60
2023/03/20 16:35:20;;;;;;;2.70;1.80;;;25.20;46.30;;;;;;4941148;28;45250;-61
2023/03/20 16:37:53;;;;;;;1.75;1.55;;;25.20;46.20;;;;;;4952418;28;45544;-58
2023/03/20 16:40:30;;;;;;;1.58;1.45;;;25.20;46.30;;;;;;4962169;28;45232;-61
2023/03/20 16:42:56;;;;;;;1.83;1.67;;;25.10;46.40;;;;;;4960167;28;45205;-58
2023/03/20 16:45:32;;;;;;;2.55;2.15;;;25.10;46.60;;;;;;4955499;28;45090;-59
2023/03/20 16:48:10;;;;;;;1.98;1.77;;;25.00;46.70;;;;;;4948620;28;46042;-58
2023/03/20 16:50:39;;;;;;;2.33;1.83;;;25.00;46.70;;;;;;4941028;28;45184;-58
2023/03/20 16:53:19;;;;;;;1.98;1.77;;;25.00;46.50;;;;;;4924625;28;45414;-58
2023/03/20 16:55:46;;;;;;;5.05;1.95;;;24.90;46.40;;;;;;4933576;28;45648;-58
2023/03/20 16:58:16;;;;;;;2.00;1.80;;;24.80;46.50;;;;;;4965237;28;45861;-59
2023/03/20 17:00:43;;;;;;;2.65;1.83;;;24.70;46.60;;;;;;4956023;23;44832;-58
2023/03/20 17:03:13;;;;;;;1.70;1.60;;;24.60;46.70;;;;;;4929676;28;45416;-60